sensor_id;sensor_type;location;lat;lon;timestamp;pressure;altitude;pressure_sealevel;temperature;humidity
53689;BME280;39583;54.682;30.662;2023-12-29T07:34:51;98485.31;;;2.55;100.00
53689;BME280;39583;54.682;30.662;2023-12-29T07:37:20;98490.50;;;2.63;100.00
53689;BME280;39583;54.682;30.662;2023-12-29T07:39:47;98495.66;;;2.71;100.00
53689;BME280;39583;54.682;30.662;2023-12-29T07:42:15;98496.91;;;2.75;100.00
53689;BME280;39583;54.682;30.662;2023-12-29T07:44:44;98500.63;;;2.81;100.00
53689;BME280;39583;54.682;30.662;2023-12-29T07:47:12;98498.19;;;2.86;100.00
53689;BME280;39583;54.682;30.662;2023-12-29T07:49:41;98497.38;;;2.85;100.00
53689;BME280;39583;54.682;30.662;2023-12-29T07:52:10;98505.84;;;2.95;100.00
53689;BME280;39583;54.682;30.662;2023-12-29T07:54:37;98500.13;;;2.99;100.00
53689;BME280;39583;54.682;30.662;2023-12-29T07:57:05;98507.13;;;3.00;100.00
53689;BME280;39583;54.682;30.662;2023-12-29T07:59:33;98503.25;;;3.02;100.00
53689;BME280;39583;54.682;30.662;2023-12-29T08:02:00;98493.44;;;3.09;100.00
53689;BME280;39583;54.682;30.662;2023-12-29T08:04:28;98493.06;;;3.12;100.00
53689;BME280;39583;54.682;30.662;2023-12-29T08:06:56;98495.09;;;3.10;100.00
53689;BME280;39583;54.682;30.662;2023-12-29T08:09:23;98495.72;;;3.12;100.00
53689;BME280;39583;54.682;30.662;2023-12-29T08:11:51;98500.03;;;3.13;100.00
53689;BME280;39583;54.682;30.662;2023-12-29T08:14:18;98493.91;;;3.13;100.00
53689;BME280;39583;54.682;30.662;2023-12-29T08:16:46;98497.19;;;3.15;100.00
53689;BME280;39583;54.682;30.662;2023-12-29T08:19:13;98500.69;;;3.22;100.00
53689;BME280;39583;54.682;30.662;2023-12-29T08:21:43;98499.88;;;3.21;100.00
53689;BME280;39583;54.682;30.662;2023-12-29T08:24:10;98505.38;;;3.20;100.00
53689;BME280;39583;54.682;30.662;2023-12-29T08:26:45;98510.94;;;3.25;100.00
53689;BME280;39583;54.682;30.662;2023-12-29T08:29:14;98508.91;;;3.27;100.00
53689;BME280;39583;54.682;30.662;2023-12-29T08:31:42;98515.47;;;3.31;100.00
53689;BME280;39583;54.682;30.662;2023-12-29T08:34:10;98519.78;;;3.32;100.00
53689;BME280;39583;54.682;30.662;2023-12-29T08:36:38;98508.31;;;3.32;100.00
53689;BME280;39583;54.682;30.662;2023-12-29T08:39:06;98511.38;;;3.29;100.00
53689;BME280;39583;54.682;30.662;2023-12-29T08:41:33;98504.84;;;3.31;100.00
53689;BME280;39583;54.682;30.662;2023-12-29T08:44:01;98511.19;;;3.30;100.00
53689;BME280;39583;54.682;30.662;2023-12-29T08:46:28;98501.78;;;3.34;100.00
53689;BME280;39583;54.682;30.662;2023-12-29T08:48:56;98502.41;;;3.36;100.00
53689;BME280;39583;54.682;30.662;2023-12-29T08:51:24;98500.75;;;3.35;100.00
53689;BME280;39583;54.682;30.662;2023-12-29T08:53:52;98506.47;;;3.32;100.00
53689;BME280;39583;54.682;30.662;2023-12-29T08:56:19;98508.75;;;3.35;100.00
53689;BME280;39583;54.682;30.662;2023-12-29T08:58:47;98506.28;;;3.34;100.00
53689;BME280;39583;54.682;30.662;2023-12-29T09:01:14;98501.78;;;3.34;100.00
53689;BME280;39583;54.682;30.662;2023-12-29T09:03:42;98509.19;;;3.39;100.00
53689;BME280;39583;54.682;30.662;2023-12-29T09:06:10;98510.63;;;3.41;100.00
53689;BME280;39583;54.682;30.662;2023-12-29T09:08:37;98513.91;;;3.43;100.00
53689;BME280;39583;54.682;30.662;2023-12-29T09:11:05;98499.78;;;3.43;100.00
53689;BME280;39583;54.682;30.662;2023-12-29T09:13:32;98499.78;;;3.43;100.00
53689;BME280;39583;54.682;30.662;2023-12-29T09:16:00;98493.66;;;3.49;100.00
53689;BME280;39583;54.682;30.662;2023-12-29T09:18:27;98490.22;;;3.55;100.00
53689;BME280;39583;54.682;30.662;2023-12-29T09:20:55;98485.09;;;3.60;100.00
53689;BME280;39583;54.682;30.662;2023-12-29T09:23:22;98485.53;;;3.64;100.00
53689;BME280;39583;54.682;30.662;2023-12-29T09:25:50;98480.19;;;3.64;100.00
53689;BME280;39583;54.682;30.662;2023-12-29T09:28:18;98473.25;;;3.63;100.00
53689;BME280;39583;54.682;30.662;2023-12-29T09:30:45;98482.25;;;3.62;100.00
53689;BME280;39583;54.682;30.662;2023-12-29T09:33:13;98491.66;;;3.58;100.00
53689;BME280;39583;54.682;30.662;2023-12-29T09:35:40;98482.19;;;3.48;100.00
53689;BME280;39583;54.682;30.662;2023-12-29T09:38:08;98475.03;;;3.49;100.00
53689;BME280;39583;54.682;30.662;2023-12-29T09:40:36;98479.13;;;3.51;100.00
53689;BME280;39583;54.682;30.662;2023-12-29T09:43:04;98464.84;;;3.59;100.00
53689;BME280;39583;54.682;30.662;2023-12-29T09:45:33;98478.19;;;3.66;100.00
53689;BME280;39583;54.682;30.662;2023-12-29T09:48:01;98471.63;;;3.68;100.00
53689;BME280;39583;54.682;30.662;2023-12-29T13:21:46;98343.13;;;2.72;100.00
53689;BME280;39583;54.682;30.662;2023-12-29T13:24:15;98346.03;;;2.77;100.00
53689;BME280;39583;54.682;30.662;2023-12-29T13:26:45;98335.81;;;2.81;100.00
53689;BME280;39583;54.682;30.662;2023-12-29T13:29:15;98339.72;;;2.85;100.00
53689;BME280;39583;54.682;30.662;2023-12-29T13:31:42;98344.44;;;2.89;100.00
53689;BME280;39583;54.682;30.662;2023-12-29T13:34:19;98340.38;;;2.93;100.00
53689;BME280;39583;54.682;30.662;2023-12-29T13:36:54;98341.19;;;2.94;100.00
53689;BME280;39583;54.682;30.662;2023-12-29T13:39:51;98351.81;;;2.94;100.00
53689;BME280;39583;54.682;30.662;2023-12-29T13:42:22;98349.38;;;2.92;100.00
53689;BME280;39583;54.682;30.662;2023-12-29T13:44:53;98348.34;;;2.93;100.00
53689;BME280;39583;54.682;30.662;2023-12-29T13:47:21;98335.06;;;2.93;100.00
53689;BME280;39583;54.682;30.662;2023-12-29T13:49:49;98344.25;;;2.91;100.00
53689;BME280;39583;54.682;30.662;2023-12-29T13:52:18;98327.22;;;2.79;100.00
53689;BME280;39583;54.682;30.662;2023-12-29T13:54:48;98340.53;;;2.85;100.00
53689;BME280;39583;54.682;30.662;2023-12-29T13:57:17;98327.63;;;2.82;100.00
53689;BME280;39583;54.682;30.662;2023-12-29T13:59:46;98322.13;;;2.84;100.00
53689;BME280;39583;54.682;30.662;2023-12-29T14:05:19;98319.47;;;2.84;100.00
53689;BME280;39583;54.682;30.662;2023-12-29T14:10:35;98303.28;;;2.79;100.00
53689;BME280;39583;54.682;30.662;2023-12-29T14:13:07;98300.84;;;2.77;100.00
53689;BME280;39583;54.682;30.662;2023-12-29T14:15:37;98299.00;;;2.78;100.00
53689;BME280;39583;54.682;30.662;2023-12-29T14:20:51;98300.59;;;2.72;100.00
53689;BME280;39583;54.682;30.662;2023-12-29T14:23:19;98285.25;;;2.67;100.00
53689;BME280;39583;54.682;30.662;2023-12-29T14:25:47;98285.47;;;2.66;100.00
53689;BME280;39583;54.682;30.662;2023-12-29T14:28:16;98283.81;;;2.65;100.00
53689;BME280;39583;54.682;30.662;2023-12-29T14:30:45;98276.41;;;2.54;100.00
53689;BME280;39583;54.682;30.662;2023-12-29T14:33:13;98281.75;;;2.60;100.00
53689;BME280;39583;54.682;30.662;2023-12-29T14:35:41;98266.78;;;2.53;100.00
53689;BME280;39583;54.682;30.662;2023-12-29T14:38:09;98280.69;;;2.55;100.00
53689;BME280;39583;54.682;30.662;2023-12-29T14:40:38;98269.44;;;2.53;100.00
53689;BME280;39583;54.682;30.662;2023-12-29T14:43:06;98270.28;;;2.53;100.00
53689;BME280;39583;54.682;30.662;2023-12-29T14:45:34;98251.00;;;2.45;100.00
53689;BME280;39583;54.682;30.662;2023-12-29T14:48:02;98254.69;;;2.44;100.00
53689;BME280;39583;54.682;30.662;2023-12-29T14:50:30;98253.25;;;2.41;100.00
53689;BME280;39583;54.682;30.662;2023-12-29T14:52:58;98258.34;;;2.36;100.00
53689;BME280;39583;54.682;30.662;2023-12-29T14:55:25;98246.25;;;2.33;100.00
53689;BME280;39583;54.682;30.662;2023-12-29T14:57:53;98246.09;;;2.35;100.00
53689;BME280;39583;54.682;30.662;2023-12-29T15:00:22;98236.44;;;2.34;100.00
53689;BME280;39583;54.682;30.662;2023-12-29T15:02:51;98236.66;;;2.32;100.00
53689;BME280;39583;54.682;30.662;2023-12-29T15:05:19;98228.88;;;2.31;100.00
53689;BME280;39583;54.682;30.662;2023-12-29T15:07:47;98238.69;;;2.30;100.00
53689;BME280;39583;54.682;30.662;2023-12-29T15:10:15;98226.22;;;2.31;100.00
53689;BME280;39583;54.682;30.662;2023-12-29T15:12:43;98217.84;;;2.27;100.00
53689;BME280;39583;54.682;30.662;2023-12-29T15:15:11;98219.06;;;2.25;100.00
53689;BME280;39583;54.682;30.662;2023-12-29T15:17:39;98214.38;;;2.27;100.00
53689;BME280;39583;54.682;30.662;2023-12-29T15:20:08;98223.97;;;2.28;100.00
53689;BME280;39583;54.682;30.662;2023-12-29T15:22:36;98209.66;;;2.22;100.00
53689;BME280;39583;54.682;30.662;2023-12-29T15:25:05;98209.44;;;2.24;100.00
53689;BME280;39583;54.682;30.662;2023-12-29T15:27:33;98206.59;;;2.25;100.00
53689;BME280;39583;54.682;30.662;2023-12-29T15:30:01;98179.38;;;2.17;100.00
53689;BME280;39583;54.682;30.662;2023-12-29T15:32:29;98188.84;;;2.32;100.00
53689;BME280;39583;54.682;30.662;2023-12-29T15:34:58;98192.56;;;2.38;100.00
53689;BME280;39583;54.682;30.662;2023-12-29T15:37:26;98183.78;;;2.38;100.00
53689;BME280;39583;54.682;30.662;2023-12-29T15:39:54;98169.44;;;2.32;100.00
53689;BME280;39583;54.682;30.662;2023-12-29T15:42:23;98183.31;;;2.34;100.00
53689;BME280;39583;54.682;30.662;2023-12-29T15:44:50;98186.81;;;2.34;100.00
53689;BME280;39583;54.682;30.662;2023-12-29T15:47:18;98187.66;;;2.35;100.00
53689;BME280;39583;54.682;30.662;2023-12-29T15:49:47;98190.31;;;2.35;100.00
53689;BME280;39583;54.682;30.662;2023-12-29T15:52:14;98190.91;;;2.37;100.00
53689;BME280;39583;54.682;30.662;2023-12-29T15:54:43;98189.50;;;2.41;100.00
53689;BME280;39583;54.682;30.662;2023-12-29T15:57:11;98144.03;;;2.16;100.00
53689;BME280;39583;54.682;30.662;2023-12-29T15:59:38;98201.34;;;2.45;100.00
53689;BME280;39583;54.682;30.662;2023-12-29T16:02:06;98190.53;;;2.47;100.00
53689;BME280;39583;54.682;30.662;2023-12-29T16:04:35;98177.69;;;2.50;100.00
53689;BME280;39583;54.682;30.662;2023-12-29T16:07:03;98188.94;;;2.52;100.00
53689;BME280;39583;54.682;30.662;2023-12-29T16:09:31;98188.72;;;2.54;100.00
53689;BME280;39583;54.682;30.662;2023-12-29T16:11:59;98180.34;;;2.57;100.00
53689;BME280;39583;54.682;30.662;2023-12-29T16:14:27;98177.69;;;2.57;100.00
53689;BME280;39583;54.682;30.662;2023-12-29T16:16:55;98176.66;;;2.58;100.00
53689;BME280;39583;54.682;30.662;2023-12-29T16:19:23;98166.84;;;2.58;100.00
53689;BME280;39583;54.682;30.662;2023-12-29T16:21:52;98165.22;;;2.57;100.00
53689;BME280;39583;54.682;30.662;2023-12-29T16:24:20;98157.47;;;2.62;100.00
53689;BME280;39583;54.682;30.662;2023-12-29T16:26:50;98151.16;;;2.63;100.00
53689;BME280;39583;54.682;30.662;2023-12-29T16:29:19;98149.31;;;2.64;100.00
53689;BME280;39583;54.682;30.662;2023-12-29T16:31:46;98150.75;;;2.66;100.00
53689;BME280;39583;54.682;30.662;2023-12-29T16:34:15;98133.56;;;2.62;100.00
53689;BME280;39583;54.682;30.662;2023-12-29T16:36:56;98145.00;;;2.70;100.00
53689;BME280;39583;54.682;30.662;2023-12-29T16:39:25;98128.66;;;2.66;100.00
53689;BME280;39583;54.682;30.662;2023-12-29T16:41:53;98132.75;;;2.69;100.00
53689;BME280;39583;54.682;30.662;2023-12-29T16:44:20;98131.72;;;2.70;100.00
53689;BME280;39583;54.682;30.662;2023-12-29T16:46:49;98136.84;;;2.71;100.00
53689;BME280;39583;54.682;30.662;2023-12-29T16:49:17;98142.97;;;2.72;100.00
53689;BME280;39583;54.682;30.662;2023-12-29T16:51:45;98140.31;;;2.72;100.00
53689;BME280;39583;54.682;30.662;2023-12-29T16:54:13;98133.78;;;2.74;100.00
53689;BME280;39583;54.682;30.662;2023-12-29T16:56:41;98132.78;;;2.75;100.00
53689;BME280;39583;54.682;30.662;2023-12-29T16:59:09;98136.44;;;2.74;100.00
53689;BME280;39583;54.682;30.662;2023-12-29T17:01:37;98129.28;;;2.75;100.00
53689;BME280;39583;54.682;30.662;2023-12-29T17:04:06;98113.31;;;2.68;100.00
53689;BME280;39583;54.682;30.662;2023-12-29T17:06:33;98119.47;;;2.75;100.00
53689;BME280;39583;54.682;30.662;2023-12-29T17:09:02;98107.59;;;2.71;100.00
53689;BME280;39583;54.682;30.662;2023-12-29T17:11:31;98121.31;;;2.81;100.00
53689;BME280;39583;54.682;30.662;2023-12-29T17:13:59;98108.84;;;2.82;100.00
53689;BME280;39583;54.682;30.662;2023-12-29T17:16:26;98113.75;;;2.85;100.00
53689;BME280;39583;54.682;30.662;2023-12-29T17:18:57;98110.28;;;2.84;100.00
53689;BME280;39583;54.682;30.662;2023-12-29T17:21:25;98102.28;;;2.84;100.00
53689;BME280;39583;54.682;30.662;2023-12-29T17:23:53;98104.75;;;2.86;100.00
53689;BME280;39583;54.682;30.662;2023-12-29T17:26:20;98093.13;;;2.87;100.00
53689;BME280;39583;54.682;30.662;2023-12-29T17:28:48;98094.31;;;2.84;100.00
53689;BME280;39583;54.682;30.662;2023-12-29T17:31:18;98094.94;;;2.86;100.00
53689;BME280;39583;54.682;30.662;2023-12-29T17:33:46;98092.91;;;2.82;100.00
53689;BME280;39583;54.682;30.662;2023-12-29T17:36:13;98088.59;;;2.81;100.00
53689;BME280;39583;54.682;30.662;2023-12-29T17:38:41;98084.31;;;2.80;100.00
53689;BME280;39583;54.682;30.662;2023-12-29T17:41:09;98084.31;;;2.80;100.00
53689;BME280;39583;54.682;30.662;2023-12-29T17:43:37;98082.88;;;2.77;100.00
53689;BME280;39583;54.682;30.662;2023-12-29T17:46:06;98082.69;;;2.79;100.00
53689;BME280;39583;54.682;30.662;2023-12-29T17:48:34;98085.34;;;2.79;100.00
53689;BME280;39583;54.682;30.662;2023-12-29T17:51:01;98085.94;;;2.81;100.00
53689;BME280;39583;54.682;30.662;2023-12-29T17:53:29;98090.44;;;2.80;100.00
53689;BME280;39583;54.682;30.662;2023-12-29T17:55:57;98097.00;;;2.78;100.00
53689;BME280;39583;54.682;30.662;2023-12-29T17:58:25;98101.69;;;2.76;100.00
53689;BME280;39583;54.682;30.662;2023-12-29T18:00:53;98093.28;;;2.72;100.00
53689;BME280;39583;54.682;30.662;2023-12-29T18:03:21;98093.28;;;2.72;100.00
53689;BME280;39583;54.682;30.662;2023-12-29T18:05:49;98101.25;;;2.72;100.00
53689;BME280;39583;54.682;30.662;2023-12-29T18:08:18;98091.28;;;2.74;100.00
53689;BME280;39583;54.682;30.662;2023-12-29T18:10:46;98084.94;;;2.75;100.00
53689;BME280;39583;54.682;30.662;2023-12-29T18:13:15;98085.53;;;2.77;100.00
53689;BME280;39583;54.682;30.662;2023-12-29T18:15:46;98088.19;;;2.77;100.00
53689;BME280;39583;54.682;30.662;2023-12-29T18:18:13;98079.41;;;2.77;100.00
53689;BME280;39583;54.682;30.662;2023-12-29T18:20:42;98080.44;;;2.76;100.00
53689;BME280;39583;54.682;30.662;2023-12-29T18:23:13;98079.41;;;2.77;100.00
53689;BME280;39583;54.682;30.662;2023-12-29T18:25:40;98070.19;;;2.79;100.00
53689;BME280;39583;54.682;30.662;2023-12-29T18:28:08;98076.75;;;2.83;100.00
53689;BME280;39583;54.682;30.662;2023-12-29T18:30:36;98073.25;;;2.83;100.00
53689;BME280;39583;54.682;30.662;2023-12-29T18:33:07;98061.59;;;2.84;100.00
53689;BME280;39583;54.682;30.662;2023-12-29T18:35:35;98073.25;;;2.83;100.00
